Barber, North Carolina
Current Conditions -  °F | °C
As of 1:35 AM on Friday 31 Oct 2014 (Local Time) from KRUQ Reporting Station
Clear Clear  
Wind Chill: 39°   Ceiling: Unl
Heat Index: 39°   Visibility: 10mi
Dew Point: 38°   Wind: 0mph
Humidity: 97%   Direction: NA
Pressure: 29.98"   Gusts: NA
Location:  35.7427°N, 80.712°W
Report Text: KRUQ 310535Z AUTO 00000KT 10SM CLR 04/03 A2998 RMK AO2 T00370033
Loading
Personal Weather Stations






























Interactive Weather Map
Tropical Storm Tracking
New forecast layout! Learn more

10-Day Weather Forecast

Advertisements
Track Severe Weather on mobile